Champagne, Canada
Current Conditions -  °F | °C
As of 3:00 AM on Wednesday 22 Oct 2014 (Local Time) from CYXY Reporting Station
Overcast Overcast  
Wind Chill: 34°   Ceiling: 3100
Heat Index: 34°   Visibility: 15mi
Dew Point: 30°   Wind: 2mph
Humidity: 87%   Direction: 230°SW
Pressure: 29.27"   Gusts: NA
Location:  60.79°N, 136.48°W
Report Text: CYXY 221000Z 23002KT 15SM OVC031 01/M01 A2927 RMK SC8 SLP940
Loading
Personal Weather Stations






























Interactive Weather Map
Tropical Storm Tracking
New forecast layout! Learn more

10-Day Weather Forecast

Advertisements
Track Severe Weather on mobile